Time;durP1;ratioP1;P1;durP2;ratioP2;P2;SDS_P1;SDS_P2;PMS_P1;PMS_P2;Temp;Humidity;BMP_temperature;BMP_pressure;BME280_temperature;BME280_humidity;BME280_pressure;Samples;Min_cycle;Max_cycle;Signal;HPM_P1;HPM_P2
2023/07/09 00:01:17;;;;;;;;;10.50;10.50;;;;;35.27;36.19;100768.94;5043481;28;45241;-77
2023/07/09 00:03:48;;;;;;;;;13.75;13.75;;;;;35.26;35.88;100768.13;5040959;28;45323;-81
2023/07/09 00:06:13;;;;;;;;;10.50;10.50;;;;;35.43;35.57;100770.31;5041430;28;45227;-77
2023/07/09 00:08:44;;;;;;;;;12.00;12.00;;;;;35.28;35.92;100776.94;5038861;28;46617;-69
2023/07/09 00:11:09;;;;;;;;;10.75;10.75;;;;;35.21;35.94;100759.75;5038652;28;45380;-82
2023/07/09 00:13:35;;;;;;;;;13.25;13.25;;;;;35.16;36.26;100767.78;5040000;28;53548;-77
2023/07/09 00:16:07;;;;;;;;;12.00;12.00;;;;;35.15;36.17;100768.84;5041886;28;45521;-75
2023/07/09 00:18:34;;;;;;;;;14.00;14.00;;;;;35.22;36.18;100769.63;5025226;28;46403;-73
2023/07/09 00:21:01;;;;;;;;;13.25;13.25;;;;;35.18;36.10;100766.47;5046060;28;45299;-69
2023/07/09 00:23:27;;;;;;;;;7.75;7.75;;;;;35.05;36.16;100772.91;5044943;28;45308;-77
2023/07/09 00:25:53;;;;;;;;;13.50;13.50;;;;;35.04;36.55;100782.16;5045340;28;45475;-69
2023/07/09 00:28:19;;;;;;;;;13.00;13.00;;;;;35.02;36.39;100778.81;5046117;28;45256;-75
2023/07/09 00:30:46;;;;;;;;;14.50;14.50;;;;;34.96;36.61;100780.47;5043128;28;45405;-75
2023/07/09 00:33:15;;;;;;;;;15.25;15.25;;;;;35.04;36.38;100781.31;5040630;28;45409;-79
2023/07/09 00:35:42;;;;;;;;;14.75;14.75;;;;;35.09;36.85;100789.69;5042757;28;45522;-69
2023/07/09 00:38:22;;;;;;;;;9.00;9.00;;;;;35.05;36.57;100783.81;5043745;28;45238;-67
2023/07/09 00:41:01;;;;;;;;;13.75;13.75;;;;;34.91;36.67;100776.72;5040836;28;45438;-72
2023/07/09 00:43:32;;;;;;;;;12.00;12.00;;;;;34.85;36.84;100785.78;5043898;28;45231;-74
2023/07/09 00:46:16;;;;;;;;;14.00;13.75;;;;;34.73;37.30;100789.22;5040771;28;45451;-70
2023/07/09 00:48:43;;;;;;;;;12.50;12.50;;;;;34.64;37.41;100793.25;5037316;28;45464;-67
2023/07/09 00:51:13;;;;;;;;;11.50;11.50;;;;;34.63;37.72;100791.56;5039691;28;45421;-69
2023/07/09 00:53:45;;;;;;;;;11.25;11.25;;;;;34.64;37.15;100794.09;5039154;28;45376;-65
2023/07/09 00:56:14;;;;;;;;;13.00;13.00;;;;;34.70;37.60;100802.47;5021580;28;45622;-66
2023/07/09 00:58:42;;;;;;;;;13.75;13.75;;;;;34.69;37.12;100801.63;5022094;28;46152;-67
2023/07/09 01:01:15;;;;;;;;;11.25;11.25;;;;;34.59;37.39;100801.25;5020514;28;45436;-69
2023/07/09 01:03:46;;;;;;;;;12.50;12.50;;;;;34.62;37.64;100806.28;5042237;28;45469;-68
2023/07/09 01:06:12;;;;;;;;;12.00;12.00;;;;;34.58;37.66;100805.03;5043489;28;45259;-68
2023/07/09 01:08:42;;;;;;;;;13.75;13.75;;;;;34.54;37.56;100812.84;5043705;28;45339;-66
2023/07/09 01:11:21;;;;;;;;;11.50;11.50;;;;;34.49;37.65;100807.19;5049416;28;45329;-70
2023/07/09 01:13:48;;;;;;;;;11.75;11.75;;;;;34.52;37.54;100812.22;5050579;28;44711;-76
2023/07/09 01:16:15;;;;;;;;;11.00;11.00;;;;;34.43;38.06;100813.44;5040428;28;45452;-74
2023/07/09 01:18:40;;;;;;;;;12.50;12.50;;;;;34.38;38.21;100805.94;5023012;28;46736;-73
2023/07/09 01:21:15;;;;;;;;;12.00;12.00;;;;;34.32;38.39;100815.78;5038605;28;45295;-77
2023/07/09 01:23:43;;;;;;;;;13.25;13.25;;;;;34.15;38.81;100811.84;5039058;28;45379;-71
2023/07/09 01:26:11;;;;;;;;;11.00;11.00;;;;;34.22;38.53;100813.53;5036982;28;45280;-74
2023/07/09 01:28:37;;;;;;;;;13.25;13.25;;;;;34.13;38.76;100809.34;5035991;28;46431;-71
2023/07/09 01:31:04;;;;;;;;;13.25;13.25;;;;;34.11;39.20;100810.59;5018879;28;45391;-78
2023/07/09 01:33:29;;;;;;;;;12.25;12.25;;;;;34.03;38.60;100806.22;5036242;28;45311;-70
2023/07/09 01:36:00;;;;;;;;;12.50;12.50;;;;;33.92;39.36;100803.03;5037026;28;45471;-69
2023/07/09 01:38:30;;;;;;;;;12.50;12.50;;;;;33.94;39.04;100820.09;5035663;28;46955;-68
2023/07/09 01:40:56;;;;;;;;;10.25;10.25;;;;;33.92;39.10;100830.31;5035583;28;45454;-65
2023/07/09 01:43:22;;;;;;;;;13.00;13.00;;;;;33.87;39.55;100823.84;5035394;28;45321;-70
2023/07/09 01:45:50;;;;;;;;;12.75;12.75;;;;;33.84;39.02;100835.16;5036801;28;45481;-72
2023/07/09 01:48:16;;;;;;;;;12.25;12.25;;;;;33.76;39.39;100828.03;5040745;28;46435;-78
2023/07/09 01:50:43;;;;;;;;;12.50;12.50;;;;;33.73;39.22;100828.44;5039680;28;45282;-81
2023/07/09 01:53:12;;;;;;;;;13.00;13.00;;;;;33.60;39.36;100832.03;5040655;28;45170;-81
2023/07/09 01:55:37;;;;;;;;;12.00;12.00;;;;;33.64;39.54;100828.66;5043951;28;45367;-82
2023/07/09 01:58:06;;;;;;;;;11.75;11.75;;;;;33.63;39.57;100831.59;5043434;28;53429;-73
2023/07/09 02:00:32;;;;;;;;;10.50;10.50;;;;;33.65;39.21;100830.34;5046976;28;45257;-81
2023/07/09 02:03:00;;;;;;;;;10.00;10.00;;;;;33.64;39.51;100842.28;5045451;28;45363;-73
2023/07/09 02:05:26;;;;;;;;;11.00;11.00;;;;;33.57;39.46;100836.00;5045487;28;45313;-73
2023/07/09 02:07:51;;;;;;;;;10.50;10.50;;;;;33.52;39.49;100837.69;5043768;28;46310;-69
2023/07/09 02:10:17;;;;;;;;;11.25;11.25;;;;;33.58;39.21;100842.31;5045932;28;44692;-74
2023/07/09 02:12:43;;;;;;;;;10.50;10.50;;;;;33.55;39.63;100842.72;5043977;28;45416;-69
2023/07/09 02:15:09;;;;;;;;;12.50;12.50;;;;;33.57;38.97;100838.72;5047181;28;45370;-66
2023/07/09 02:17:36;;;;;;;;;8.50;8.50;;;;;33.36;40.10;100846.00;5046260;28;46549;-68
2023/07/09 02:20:03;;;;;;;;;13.75;13.25;;;;;33.35;39.88;100841.59;5047597;28;45187;-65
2023/07/09 02:22:28;;;;;;;;;11.25;11.25;;;;;33.36;40.03;100834.25;5044723;28;45171;-68
2023/07/09 02:24:54;;;;;;;;;11.00;11.00;;;;;33.40;39.99;100831.97;5045035;28;50370;-66
2023/07/09 02:27:20;;;;;;;;;13.25;13.25;;;;;33.42;39.46;100830.75;5044413;28;52094;-74
2023/07/09 02:29:46;;;;;;;;;9.00;9.00;;;;;33.38;39.50;100826.69;5041778;28;45320;-70
2023/07/09 02:32:18;;;;;;;;;11.00;11.00;;;;;33.34;38.86;100818.13;5041566;28;45454;-68
2023/07/09 02:34:48;;;;;;;;;12.50;12.50;;;;;33.41;39.29;100826.34;5041591;28;45324;-74
2023/07/09 02:37:16;;;;;;;;;11.00;11.00;;;;;33.48;38.99;100826.34;5042896;28;46360;-82
2023/07/09 02:39:42;;;;;;;;;8.75;8.75;;;;;33.50;39.12;100832.41;5042890;28;45384;-78
2023/07/09 02:42:10;;;;;;;;;10.75;10.75;;;;;33.44;39.02;100831.38;5046130;28;45361;-67
2023/07/09 02:44:35;;;;;;;;;9.50;9.50;;;;;33.39;38.79;100831.09;5033405;28;45270;-69
2023/07/09 02:47:00;;;;;;;;;10.25;10.25;;;;;33.32;39.22;100839.28;5025347;28;46507;-67
2023/07/09 02:49:27;;;;;;;;;10.50;10.50;;;;;33.32;39.11;100832.97;5041426;28;45386;-66
2023/07/09 02:51:52;;;;;;;;;9.75;9.75;;;;;33.20;39.60;100827.31;5025848;28;45337;-67
2023/07/09 02:54:18;;;;;;;;;12.00;12.00;;;;;33.16;39.37;100837.78;5041685;28;45569;-75
2023/07/09 02:56:43;;;;;;;;;11.00;11.00;;;;;33.10;39.59;100841.31;5041019;28;46906;-72
2023/07/09 02:59:09;;;;;;;;;12.00;12.00;;;;;33.05;39.09;100831.06;5042056;28;45392;-74
2023/07/09 03:01:35;;;;;;;;;10.00;10.00;;;;;33.14;39.17;100839.03;5041951;28;45435;-70
2023/07/09 03:04:03;;;;;;;;;11.75;11.75;;;;;33.06;39.83;100831.88;5041878;28;45180;-74
2023/07/09 03:06:29;;;;;;;;;13.25;13.25;;;;;33.10;40.12;100846.78;5040819;28;45676;-72
2023/07/09 03:08:54;;;;;;;;;10.25;10.25;;;;;33.13;39.70;100848.25;5041876;28;45225;-70
2023/07/09 03:11:21;;;;;;;;;11.50;11.50;;;;;33.12;40.38;100841.97;5040488;28;45489;-77
2023/07/09 03:13:47;;;;;;;;;8.50;8.50;;;;;33.13;40.16;100851.00;5025551;28;45586;-78
2023/07/09 03:16:14;;;;;;;;;15.00;15.00;;;;;33.09;40.64;100857.91;5041867;28;46367;-79
2023/07/09 03:18:39;;;;;;;;;17.25;17.25;;;;;33.09;40.48;100852.44;5041585;28;45425;-78
2023/07/09 03:21:05;;;;;;;;;17.00;16.50;;;;;33.12;40.24;100852.03;5040931;28;45191;-70
2023/07/09 03:23:30;;;;;;;;;14.75;14.75;;;;;33.10;40.83;100854.94;5040106;28;45546;-79
2023/07/09 03:25:57;;;;;;;;;15.25;15.25;;;;;33.19;40.45;100870.06;5022202;28;47136;-74
2023/07/09 03:28:23;;;;;;;;;14.25;14.25;;;;;33.25;40.51;100878.47;5045895;28;45364;-75
2023/07/09 03:30:49;;;;;;;;;16.75;16.75;;;;;33.19;40.48;100875.50;5040386;28;45236;-70
2023/07/09 03:33:16;;;;;;;;;15.75;15.75;;;;;33.24;40.06;100879.50;5039314;28;45352;-66
2023/07/09 03:35:42;;;;;;;;;15.00;15.00;;;;;33.09;40.26;100871.50;5042429;28;46797;-68
2023/07/09 03:38:10;;;;;;;;;15.25;15.25;;;;;33.03;40.82;100865.00;5047492;28;45450;-65
2023/07/09 03:40:37;;;;;;;;;15.75;15.75;;;;;32.92;40.52;100869.97;5045936;28;45430;-69
2023/07/09 03:43:03;;;;;;;;;13.75;13.75;;;;;32.91;41.67;100862.84;5041308;28;45419;-70
2023/07/09 03:45:28;;;;;;;;;15.25;15.25;;;;;32.75;40.71;100849.56;5021335;28;47969;-82
2023/07/09 03:47:53;;;;;;;;;12.50;12.50;;;;;32.82;41.29;100861.31;5039831;28;45264;-83
2023/07/09 03:50:19;;;;;;;;;15.50;15.50;;;;;32.76;41.36;100862.94;5038835;28;45277;-81
2023/07/09 03:52:44;;;;;;;;;15.75;15.75;;;;;32.78;41.15;100869.03;5040571;28;45210;-84
2023/07/09 03:55:10;;;;;;;;;16.50;16.50;;;;;32.68;41.27;100873.19;5043572;28;46287;-83
2023/07/09 03:57:35;;;;;;;;;12.75;12.75;;;;;32.66;41.23;100867.94;5045462;28;45328;-80
2023/07/09 04:00:03;;;;;;;;;14.50;14.50;;;;;32.64;41.37;100870.03;5045821;28;45268;-67
2023/07/09 04:02:29;;;;;;;;;13.50;13.50;;;;;32.61;41.39;100854.94;5040025;28;45431;-70
2023/07/09 04:04:54;;;;;;;;;12.00;12.00;;;;;32.63;41.73;100862.88;5039601;28;45395;-78
2023/07/09 04:07:19;;;;;;;;;14.00;14.00;;;;;32.62;41.11;100863.94;5023094;28;45681;-74
2023/07/09 04:09:45;;;;;;;;;12.50;12.50;;;;;32.59;41.48;100875.22;5040497;28;45293;-66
2023/07/09 04:12:10;;;;;;;;;13.00;13.00;;;;;32.58;41.76;100870.81;5039498;28;45452;-67
2023/07/09 04:14:36;;;;;;;;;14.00;14.00;;;;;32.53;41.54;100859.69;5041720;28;45308;-66
2023/07/09 04:17:02;;;;;;;;;11.00;11.00;;;;;32.52;41.49;100869.75;5043359;28;45296;-67
2023/07/09 04:19:28;;;;;;;;;10.00;9.50;;;;;32.58;41.17;100868.09;5025353;28;45415;-72
2023/07/09 04:21:53;;;;;;;;;12.00;12.00;;;;;32.58;40.85;100877.13;5041069;28;45399;-78
2023/07/09 04:24:19;;;;;;;;;10.75;10.75;;;;;32.65;41.43;100879.88;5040346;28;45178;-79
2023/07/09 04:26:46;;;;;;;;;9.50;9.50;;;;;32.57;41.32;100870.00;5022104;28;45260;-76
2023/07/09 04:29:12;;;;;;;;;11.00;11.00;;;;;32.62;40.63;100872.09;5038950;28;45333;-73
2023/07/09 04:31:37;;;;;;;;;11.00;11.00;;;;;32.56;41.33;100871.03;5038378;28;45506;-76
2023/07/09 04:34:04;;;;;;;;;13.75;13.75;;;;;32.56;41.26;100865.59;5037270;28;58022;-77
2023/07/09 04:36:29;;;;;;;;;11.50;11.50;;;;;32.51;41.02;100867.22;5037743;28;45402;-77
2023/07/09 04:38:55;;;;;;;;;10.00;10.00;;;;;32.59;41.11;100876.09;5044549;28;45356;-71
2023/07/09 04:41:20;;;;;;;;;10.00;10.00;;;;;32.56;41.06;100873.75;5049596;28;45252;-71
2023/07/09 04:43:46;;;;;;;;;10.00;10.00;;;;;32.60;41.02;100869.59;5049625;28;45426;-74
2023/07/09 04:46:11;;;;;;;;;17.25;17.25;;;;;32.65;40.66;100863.53;5044801;28;45390;-77
2023/07/09 04:48:36;;;;;;;;;11.25;11.25;;;;;32.73;41.03;100863.34;5043581;28;45403;-78
2023/07/09 04:51:02;;;;;;;;;12.50;11.50;;;;;32.87;40.58;100868.91;5042204;28;45594;-75
2023/07/09 04:53:28;;;;;;;;;11.00;11.00;;;;;32.89;39.81;100866.84;5038023;28;47069;-68
2023/07/09 04:55:53;;;;;;;;;9.75;9.75;;;;;32.88;39.85;100857.00;5037747;28;45240;-73
2023/07/09 04:58:18;;;;;;;;;10.25;10.25;;;;;32.99;39.78;100856.41;5042150;28;45144;-66
2023/07/09 05:00:45;;;;;;;;;11.00;11.00;;;;;33.05;39.48;100852.84;5023685;28;45090;-73
2023/07/09 05:03:10;;;;;;;;;8.75;8.75;;;;;33.26;39.11;100853.75;5037593;28;45427;-66
2023/07/09 05:05:42;;;;;;;;;10.50;10.50;;;;;33.59;38.80;100852.16;5037355;28;45350;-75
2023/07/09 05:08:07;;;;;;;;;11.75;11.75;;;;;33.70;37.96;100854.25;5019565;28;45486;-73
2023/07/09 05:10:33;;;;;;;;;10.25;10.25;;;;;33.82;37.86;100845.44;5019256;28;45213;-79
2023/07/09 05:12:58;;;;;;;;;8.50;8.50;;;;;33.79;37.65;100850.28;5021980;28;47060;-82
2023/07/09 05:15:23;;;;;;;;;10.00;10.00;;;;;33.90;37.20;100854.25;5041158;28;54820;-77
2023/07/09 05:17:49;;;;;;;;;7.75;7.75;;;;;33.97;36.79;100854.28;5022859;28;45896;-73
2023/07/09 05:20:15;;;;;;;;;9.00;9.00;;;;;33.98;36.78;100855.13;5038160;28;45263;-74
2023/07/09 05:22:40;;;;;;;;;10.25;10.25;;;;;34.03;36.60;100847.97;5039687;28;45492;-80
2023/07/09 05:25:06;;;;;;;;;10.00;10.00;;;;;34.10;36.40;100853.44;5039085;28;45284;-73
2023/07/09 05:27:31;;;;;;;;;8.50;8.50;;;;;34.09;36.00;100846.31;5037114;28;45414;-76
2023/07/09 05:29:58;;;;;;;;;8.00;8.00;;;;;34.22;36.09;100850.88;5037021;28;45253;-74
2023/07/09 05:32:23;;;;;;;;;9.00;9.00;;;;;34.33;35.87;100846.69;5037091;28;45569;-73
2023/07/09 05:34:49;;;;;;;;;7.00;7.00;;;;;34.41;35.50;100864.72;5018482;28;45347;-77
2023/07/09 05:37:14;;;;;;;;;7.50;7.50;;;;;34.26;35.90;100876.72;5037153;28;45372;-76
2023/07/09 05:39:39;;;;;;;;;9.25;9.25;;;;;34.18;35.54;100871.47;5037569;28;45555;-70
2023/07/09 05:42:05;;;;;;;;;8.00;8.00;;;;;34.19;35.57;100873.16;5020508;28;46328;-72
2023/07/09 05:44:31;;;;;;;;;9.75;9.75;;;;;34.19;35.51;100878.63;5045075;28;45564;-69
2023/07/09 05:46:56;;;;;;;;;9.00;9.00;;;;;34.12;35.63;100881.38;5040819;28;45219;-68
2023/07/09 05:49:22;;;;;;;;;8.25;8.25;;;;;34.09;35.87;100870.88;5050299;28;44921;-66
2023/07/09 05:51:47;;;;;;;;;8.50;8.50;;;;;34.04;35.95;100859.75;5039961;28;49475;-71
2023/07/09 05:54:12;;;;;;;;;9.00;9.00;;;;;34.24;35.91;100865.16;5039484;28;52744;-69
2023/07/09 05:56:38;;;;;;;;;8.75;8.75;;;;;34.36;35.43;100848.97;5040298;28;45365;-72
2023/07/09 05:59:04;;;;;;;;;9.00;9.00;;;;;34.54;35.06;100855.69;5040088;28;45312;-71
2023/07/09 06:01:29;;;;;;;;;11.25;11.00;;;;;34.64;34.57;100837.81;5041704;28;46356;-68
2023/07/09 06:03:56;;;;;;;;;8.25;8.25;;;;;34.90;35.06;100846.94;5044793;28;45301;-71
2023/07/09 06:06:21;;;;;;;;;9.00;9.00;;;;;35.19;34.53;100854.81;5045224;28;45360;-76
2023/07/09 06:08:47;;;;;;;;;9.00;9.00;;;;;35.36;33.82;100855.09;5029050;28;45418;-72
2023/07/09 06:11:13;;;;;;;;;7.50;7.50;;;;;35.34;33.94;100863.53;5047462;28;45450;-79
2023/07/09 06:13:38;;;;;;;;;11.75;11.75;;;;;35.41;33.88;100865.41;5042957;28;45341;-75
2023/07/09 06:16:04;;;;;;;;;9.75;9.75;;;;;35.60;33.20;100869.91;5040850;28;57467;-80
2023/07/09 06:18:30;;;;;;;;;9.00;9.00;;;;;35.49;33.34;100865.16;5040853;28;45515;-81
2023/07/09 06:20:58;;;;;;;;;7.00;7.00;;;;;35.51;33.06;100860.31;5040401;28;45274;-75
2023/07/09 06:23:23;;;;;;;;;7.00;7.00;;;;;35.48;33.14;100868.94;5040852;28;45381;-80
2023/07/09 06:25:48;;;;;;;;;8.75;8.75;;;;;35.44;33.28;100881.38;5044191;28;45581;-72
2023/07/09 06:28:23;;;;;;;;;8.25;8.25;;;;;35.62;33.17;100888.84;5047713;28;45485;-74
2023/07/09 06:30:49;;;;;;;;;8.25;8.25;;;;;35.74;33.18;100900.75;5047568;28;45269;-76
2023/07/09 06:33:17;;;;;;;;;8.00;8.00;;;;;35.80;33.13;100907.22;5041139;28;45442;-80
2023/07/09 06:35:51;;;;;;;;;9.75;9.75;;;;;35.73;33.11;100907.28;5043841;28;45242;-74
2023/07/09 06:38:17;;;;;;;;;6.00;6.00;;;;;35.59;32.89;100916.66;5042188;28;45308;-77
2023/07/09 06:40:43;;;;;;;;;7.50;7.50;;;;;35.62;32.90;100911.56;5040736;28;46118;-81
2023/07/09 06:43:08;;;;;;;;;9.25;9.25;;;;;35.62;32.75;100918.94;5040410;28;45372;-84
2023/07/09 06:45:34;;;;;;;;;8.00;8.00;;;;;35.67;33.19;100921.84;5041865;28;45280;-81
2023/07/09 06:48:00;;;;;;;;;9.00;9.00;;;;;35.68;32.82;100909.84;5051450;28;45387;-70
2023/07/09 06:50:25;;;;;;;;;9.00;9.00;;;;;35.68;32.87;100920.81;5046601;28;46403;-76
2023/07/09 06:52:51;;;;;;;;;9.00;9.00;;;;;35.81;32.53;100926.16;5040356;28;60605;-74
2023/07/09 06:55:16;;;;;;;;;7.50;7.50;;;;;35.74;32.33;100930.84;5041656;28;45790;-74
2023/07/09 06:57:42;;;;;;;;;7.50;7.50;;;;;35.76;32.46;100922.41;5042931;28;45329;-76
2023/07/09 07:00:08;;;;;;;;;9.00;9.00;;;;;35.70;32.54;100926.03;5027307;28;46983;-76
2023/07/09 07:02:33;;;;;;;;;8.00;8.00;;;;;35.62;32.42;100922.50;5048829;28;45183;-73
2023/07/09 07:04:59;;;;;;;;;8.00;8.00;;;;;35.68;32.54;100923.53;5048578;28;45131;-80
2023/07/09 07:07:24;;;;;;;;;8.00;8.00;;;;;35.62;32.70;100910.75;5045268;28;45230;-70
2023/07/09 07:09:50;;;;;;;;;8.00;8.00;;;;;35.62;32.77;100889.69;5046688;28;46721;-72
2023/07/09 07:12:27;;;;;;;;;7.50;7.50;;;;;35.85;32.28;100907.41;5049609;28;45689;-74
2023/07/09 07:14:53;;;;;;;;;5.25;5.25;;;;;35.95;32.50;100899.53;5049389;28;45348;-72
2023/07/09 07:17:19;;;;;;;;;6.75;6.75;;;;;36.06;31.96;100898.00;5045449;28;45325;-74
2023/07/09 07:19:44;;;;;;;;;7.75;7.75;;;;;36.36;31.84;100889.06;5031760;28;45458;-69
2023/07/09 07:22:10;;;;;;;;;6.75;6.75;;;;;36.25;31.89;100857.81;5057563;28;45443;-72
2023/07/09 07:24:35;;;;;;;;;7.50;7.50;;;;;36.59;32.01;100912.28;5048003;28;45330;-78
2023/07/09 07:27:01;;;;;;;;;7.25;7.25;;;;;36.68;31.44;100918.25;5042171;28;47315;-78
2023/07/09 07:29:26;;;;;;;;;7.75;7.75;;;;;36.75;31.97;100930.00;5042190;28;47722;-78
2023/07/09 07:31:54;;;;;;;;;7.00;7.00;;;;;37.04;30.83;100929.47;5044236;28;45319;-74
2023/07/09 07:34:20;;;;;;;;;8.25;8.25;;;;;37.18;31.11;100935.63;5043117;28;45189;-74
2023/07/09 07:36:45;;;;;;;;;5.75;5.75;;;;;37.10;30.82;100940.34;5043689;28;45451;-79
2023/07/09 07:39:11;;;;;;;;;5.75;5.25;;;;;36.90;30.45;100943.31;5041621;28;46136;-70
2023/07/09 07:41:36;;;;;;;;;6.25;6.25;;;;;36.89;30.50;100949.00;5040364;28;45281;-72
2023/07/09 07:44:02;;;;;;;;;7.00;7.00;;;;;36.93;30.55;100944.75;5040995;28;45293;-78
2023/07/09 07:46:29;;;;;;;;;5.75;5.75;;;;;36.83;30.67;100953.53;5039190;28;45433;-83
2023/07/09 07:48:54;;;;;;;;;5.75;5.75;;;;;36.71;30.81;100958.09;5039095;28;45357;-77
2023/07/09 07:51:22;;;;;;;;;6.75;6.75;;;;;36.68;30.68;100967.59;5040067;28;45377;-77
2023/07/09 07:53:48;;;;;;;;;6.00;6.00;;;;;36.43;30.74;100986.75;5041593;28;45327;-77
2023/07/09 07:56:14;;;;;;;;;6.00;6.00;;;;;36.43;30.73;101012.25;5041444;28;45586;-66
2023/07/09 07:58:39;;;;;;;;;6.00;6.00;;;;;36.16;31.34;101025.31;5040079;28;45953;-70
2023/07/09 08:01:05;;;;;;;;;6.75;6.75;;;;;36.12;31.31;101022.22;5040900;28;45200;-69
2023/07/09 08:03:30;;;;;;;;;9.50;9.50;;;;;35.95;31.23;101022.69;5038555;28;45511;-75
2023/07/09 08:05:55;;;;;;;;;8.00;8.00;;;;;35.76;32.05;101021.78;5039404;28;45712;-76
2023/07/09 08:08:21;;;;;;;;;6.00;6.00;;;;;35.58;32.37;101027.97;5039131;28;45359;-71
2023/07/09 08:10:46;;;;;;;;;8.75;8.75;;;;;35.24;32.59;101005.34;5039050;28;45399;-79
2023/07/09 08:13:13;;;;;;;;;12.00;12.00;;;;;35.01;33.08;100962.97;5021697;28;45243;-73
2023/07/09 08:15:38;;;;;;;;;13.25;13.25;;;;;35.01;33.39;100962.13;5041211;28;45430;-69
2023/07/09 08:18:04;;;;;;;;;12.50;12.50;;;;;34.88;33.68;100974.75;5040004;28;46391;-72
2023/07/09 08:20:29;;;;;;;;;13.50;13.50;;;;;34.79;34.04;100974.13;5038830;28;45335;-73
2023/07/09 08:22:55;;;;;;;;;13.25;13.25;;;;;34.82;33.97;100970.13;5037241;28;45347;-68
2023/07/09 08:25:20;;;;;;;;;9.50;9.50;;;;;34.66;34.12;100965.94;5038234;28;45587;-68
2023/07/09 08:27:45;;;;;;;;;12.25;12.25;;;;;34.51;34.44;100971.66;5019541;28;45469;-76
2023/07/09 08:30:11;;;;;;;;;10.75;10.75;;;;;34.38;34.61;100977.94;5036684;28;60950;-73
2023/07/09 08:32:37;;;;;;;;;9.25;9.25;;;;;34.34;34.48;100977.50;5038342;28;45870;-71
2023/07/09 08:35:02;;;;;;;;;10.50;10.50;;;;;34.35;34.90;100979.19;5039183;28;46036;-69
2023/07/09 08:37:28;;;;;;;;;8.25;6.75;;;;;34.34;34.97;100979.41;5040519;28;45476;-71
2023/07/09 08:39:53;;;;;;;;;8.75;8.75;;;;;34.54;34.75;100970.38;5044681;28;45224;-78
2023/07/09 08:42:31;;;;;;;;;10.00;10.00;;;;;34.70;34.46;100980.03;5043228;28;45329;-78
2023/07/09 08:45:21;;;;;;;;;11.00;11.00;;;;;34.91;34.22;101018.03;5043482;28;45277;-75
2023/07/09 08:47:57;;;;;;;;;9.25;9.25;;;;;35.06;34.10;101019.72;5041067;28;45508;-78
2023/07/09 08:50:31;;;;;;;;;8.75;8.75;;;;;35.19;34.29;101029.78;5038536;28;45240;-81
2023/07/09 08:52:57;;;;;;;;;8.75;8.75;;;;;35.25;34.17;101037.13;5027811;28;45403;-68
2023/07/09 08:55:29;;;;;;;;;10.25;10.25;;;;;35.36;33.82;101030.97;5048968;28;45250;-72
2023/07/09 08:58:01;;;;;;;;;11.25;11.25;;;;;35.44;33.74;101043.53;5041445;28;45518;-75
2023/07/09 09:00:50;;;;;;;;;10.00;10.00;;;;;35.63;33.61;101057.41;5025651;28;45431;-66
2023/07/09 09:03:29;;;;;;;;;11.00;11.00;;;;;35.58;33.66;101058.03;5041270;28;45166;-79
2023/07/09 09:05:55;;;;;;;;;11.75;11.75;;;;;35.67;33.34;101075.88;5039340;28;45308;-75
2023/07/09 09:08:45;;;;;;;;;13.00;13.00;;;;;35.79;33.76;101061.53;5039202;28;45556;-85
2023/07/09 09:11:45;;;;;;;;;15.25;15.25;;;;;36.05;32.85;101065.19;5044460;28;45427;-82
2023/07/09 09:14:50;;;;;;;;;10.00;10.00;;;;;36.21;32.35;101048.25;5021711;28;45440;-84
2023/07/09 09:17:18;;;;;;;;;7.75;7.75;;;;;36.15;32.56;101038.19;4978291;28;45416;-72
2023/07/09 09:19:55;;;;;;;;;13.25;13.25;;;;;36.15;32.25;101037.34;5038362;28;46317;-76
2023/07/09 09:22:29;;;;;;;;;11.00;11.00;;;;;36.10;32.59;101019.69;5039569;28;45261;-77
2023/07/09 09:25:03;;;;;;;;;13.25;13.25;;;;;36.01;32.35;101007.31;5039617;28;45278;-75
2023/07/09 09:27:28;;;;;;;;;13.00;13.00;;;;;35.89;32.53;101009.88;5039531;28;45431;-70
2023/07/09 09:29:54;;;;;;;;;9.50;9.50;;;;;35.81;32.60;100991.84;5045375;28;45980;-70
2023/07/09 09:32:35;;;;;;;;;9.25;9.25;;;;;36.06;32.47;100973.81;5028621;28;45321;-67
2023/07/09 09:35:15;;;;;;;;;11.50;11.50;;;;;36.08;32.56;100977.19;5009987;28;45442;-69
2023/07/09 09:37:49;;;;;;;;;8.00;8.00;;;;;36.23;32.58;100990.50;5044211;28;45240;-69
2023/07/09 09:40:18;;;;;;;;;10.75;10.75;;;;;36.31;32.55;100990.22;5043982;28;45708;-74
2023/07/09 09:42:44;;;;;;;;;10.00;10.00;;;;;36.34;32.02;100994.44;5044501;28;45254;-68
2023/07/09 09:45:16;;;;;;;;;13.00;13.00;;;;;36.35;32.22;101018.03;5046489;28;45335;-79
2023/07/09 09:47:43;;;;;;;;;7.50;7.50;;;;;36.14;31.84;101033.78;5044749;28;45464;-82
2023/07/09 09:50:16;;;;;;;;;9.75;9.75;;;;;35.91;32.63;101032.41;5044003;28;46277;-76
2023/07/09 09:52:43;;;;;;;;;10.25;10.25;;;;;35.81;32.70;101053.94;5046588;28;45211;-68
2023/07/09 09:55:16;;;;;;;;;11.50;11.50;;;;;35.92;36.00;101061.44;5046000;28;45235;-75
2023/07/09 09:57:56;;;;;;;;;8.00;8.00;;;;;35.70;34.68;101046.41;5048371;28;45399;-71
2023/07/09 10:00:25;;;;;;;;;8.25;8.25;;;;;35.66;33.88;101062.44;5049272;28;45485;-73
2023/07/09 10:02:56;;;;;;;;;7.25;7.25;;;;;35.47;33.42;101059.53;5037177;28;45339;-70
2023/07/09 10:05:31;;;;;;;;;8.75;8.75;;;;;35.40;34.02;101066.91;5050174;28;45249;-70
2023/07/09 10:08:07;;;;;;;;;12.00;12.00;;;;;35.52;33.75;101067.13;5046041;28;45274;-77
2023/07/09 10:10:33;;;;;;;;;8.25;8.25;;;;;35.52;33.52;101072.59;5044407;28;45494;-78
2023/07/09 10:13:26;;;;;;;;;15.25;15.25;;;;;35.74;33.93;101092.28;5045419;28;45347;-78
2023/07/09 10:16:21;;;;;;;;;13.75;13.75;;;;;36.06;33.68;101086.06;5048478;28;45436;-71
2023/07/09 10:18:59;;;;;;;;;17.50;17.00;;;;;36.02;34.20;101073.84;5051226;28;45411;-75
2023/07/09 10:21:41;;;;;;;;;43.50;37.25;;;;;36.01;33.65;101036.56;5050601;28;45672;-77
2023/07/09 10:24:32;;;;;;;;;75.67;69.67;;;;;35.96;34.18;100985.22;5050061;28;45273;-78
2023/07/09 10:27:12;;;;;;;;;22.50;22.50;;;;;35.86;34.35;100944.66;5055974;28;45292;-71
2023/07/09 10:29:42;;;;;;;;;15.00;15.00;;;;;35.91;34.36;100950.28;5055509;28;45292;-74
2023/07/09 10:32:35;;;;;;;;;16.75;16.75;;;;;35.98;34.53;100970.25;5045890;28;46569;-77
2023/07/09 10:35:07;;;;;;;;;14.00;14.00;;;;;36.32;34.12;100980.97;5044660;28;45475;-73
2023/07/09 10:37:54;;;;;;;;;15.75;15.75;;;;;36.55;33.36;100982.25;5044006;28;45456;-81
2023/07/09 10:40:45;;;;;;;;;18.75;18.75;;;;;36.64;33.79;100971.84;5041696;28;45407;-75
2023/07/09 10:43:32;;;;;;;;;17.50;17.50;;;;;37.06;33.31;100982.19;5041163;28;46208;-77
2023/07/09 10:46:04;;;;;;;;;13.25;13.25;;;;;37.23;33.17;101004.34;5041827;28;44726;-82
2023/07/09 10:48:40;;;;;;;;;12.00;12.00;;;;;37.36;32.67;101026.09;5043423;28;45229;-72
2023/07/09 10:51:27;;;;;;;;;19.75;19.75;;;;;37.36;32.61;101028.00;5045695;28;45272;-74
2023/07/09 10:54:21;;;;;;;;;13.25;13.25;;;;;37.48;32.46;101028.09;5041675;28;45762;-73
2023/07/09 10:56:57;;;;;;;;;11.00;11.00;;;;;37.44;32.26;101032.34;5042223;28;45313;-74
2023/07/09 10:59:30;;;;;;;;;10.00;10.00;;;;;37.50;32.23;101034.19;5024555;28;45299;-69
2023/07/09 11:02:26;;;;;;;;;14.25;14.25;;;;;37.88;32.11;101041.25;5045946;28;45245;-69
2023/07/09 11:05:02;;;;;;;;;16.75;16.75;;;;;38.50;31.32;101031.91;5041642;28;46402;-73
2023/07/09 11:07:27;;;;;;;;;10.50;10.50;;;;;38.71;30.31;101026.88;5046078;28;45413;-77
2023/07/09 11:09:56;;;;;;;;;9.50;9.50;;;;;38.86;30.17;101023.66;5044874;28;45317;-81
2023/07/09 11:12:37;;;;;;;;;10.50;10.50;;;;;38.69;29.74;101026.28;5044190;28;45428;-72
2023/07/09 11:15:16;;;;;;;;;8.75;8.75;;;;;38.55;29.78;101018.28;5041314;28;45241;-75
2023/07/09 11:17:45;;;;;;;;;11.75;11.75;;;;;38.75;30.22;101017.06;5024084;28;45590;-73
2023/07/09 11:20:26;;;;;;;;;12.75;12.75;;;;;38.91;29.39;101006.44;5042055;28;45364;-77
2023/07/09 11:23:02;;;;;;;;;11.25;11.25;;;;;38.77;29.53;100992.94;5042956;28;46123;-73